sensor_id;sensor_type;location;lat;lon;timestamp;temperature;humidity
21047;DHT22;10682;50.874;3.656;2023-04-03T00:01:34;0.50;99.90
21047;DHT22;10682;50.874;3.656;2023-04-03T00:04:02;0.40;99.90
21047;DHT22;10682;50.874;3.656;2023-04-03T00:06:32;0.40;99.90
21047;DHT22;10682;50.874;3.656;2023-04-03T00:09:01;0.40;99.90
21047;DHT22;10682;50.874;3.656;2023-04-03T00:11:29;0.40;99.90
21047;DHT22;10682;50.874;3.656;2023-04-03T00:13:56;0.40;99.90
21047;DHT22;10682;50.874;3.656;2023-04-03T00:16:24;0.40;99.90
21047;DHT22;10682;50.874;3.656;2023-04-03T00:18:51;0.30;99.90
21047;DHT22;10682;50.874;3.656;2023-04-03T00:21:18;0.30;99.90
21047;DHT22;10682;50.874;3.656;2023-04-03T00:23:45;0.30;99.90
21047;DHT22;10682;50.874;3.656;2023-04-03T00:26:12;0.30;99.90
21047;DHT22;10682;50.874;3.656;2023-04-03T00:28:42;0.20;99.90
21047;DHT22;10682;50.874;3.656;2023-04-03T00:31:14;0.20;99.90
21047;DHT22;10682;50.874;3.656;2023-04-03T00:33:54;0.30;99.90
21047;DHT22;10682;50.874;3.656;2023-04-03T00:36:21;0.30;99.90
21047;DHT22;10682;50.874;3.656;2023-04-03T00:38:48;0.30;99.90
21047;DHT22;10682;50.874;3.656;2023-04-03T00:41:15;0.30;99.90
21047;DHT22;10682;50.874;3.656;2023-04-03T00:43:45;0.20;99.90
21047;DHT22;10682;50.874;3.656;2023-04-03T00:46:12;0.10;99.90
21047;DHT22;10682;50.874;3.656;2023-04-03T00:48:45;0.10;99.90
21047;DHT22;10682;50.874;3.656;2023-04-03T00:51:24;0.10;99.90
21047;DHT22;10682;50.874;3.656;2023-04-03T00:54:02;0.10;99.90
21047;DHT22;10682;50.874;3.656;2023-04-03T00:56:32;0.20;99.90
21047;DHT22;10682;50.874;3.656;2023-04-03T00:59:08;0.20;99.90
21047;DHT22;10682;50.874;3.656;2023-04-03T01:01:40;0.20;99.90
21047;DHT22;10682;50.874;3.656;2023-04-03T01:04:36;0.10;99.90
21047;DHT22;10682;50.874;3.656;2023-04-03T01:07:29;0.10;99.90
21047;DHT22;10682;50.874;3.656;2023-04-03T01:09:59;0.10;99.90
21047;DHT22;10682;50.874;3.656;2023-04-03T01:12:39;0.10;99.90
21047;DHT22;10682;50.874;3.656;2023-04-03T01:15:26;0.10;99.90
21047;DHT22;10682;50.874;3.656;2023-04-03T01:18:15;0.10;99.90
21047;DHT22;10682;50.874;3.656;2023-04-03T01:24:09;0.10;99.90
21047;DHT22;10682;50.874;3.656;2023-04-03T01:26:43;0.10;99.90
21047;DHT22;10682;50.874;3.656;2023-04-03T01:29:11;0.10;99.90
21047;DHT22;10682;50.874;3.656;2023-04-03T01:31:57;0.10;99.90
21047;DHT22;10682;50.874;3.656;2023-04-03T01:34:29;0.00;99.90
21047;DHT22;10682;50.874;3.656;2023-04-03T01:37:03;0.00;99.90
21047;DHT22;10682;50.874;3.656;2023-04-03T01:39:30;0.10;99.90
21047;DHT22;10682;50.874;3.656;2023-04-03T01:41:57;0.00;99.90
21047;DHT22;10682;50.874;3.656;2023-04-03T01:44:26;0.00;99.90
21047;DHT22;10682;50.874;3.656;2023-04-03T01:46:53;0.00;99.90
21047;DHT22;10682;50.874;3.656;2023-04-03T01:49:19;0.00;99.90
21047;DHT22;10682;50.874;3.656;2023-04-03T01:51:46;0.00;99.90
21047;DHT22;10682;50.874;3.656;2023-04-03T01:54:13;0.00;99.90
21047;DHT22;10682;50.874;3.656;2023-04-03T01:56:41;0.00;99.90
21047;DHT22;10682;50.874;3.656;2023-04-03T01:59:08;0.00;99.90
21047;DHT22;10682;50.874;3.656;2023-04-03T02:01:35;0.00;99.90
21047;DHT22;10682;50.874;3.656;2023-04-03T02:04:03;0.00;99.90
21047;DHT22;10682;50.874;3.656;2023-04-03T02:06:30;-0.10;99.90
21047;DHT22;10682;50.874;3.656;2023-04-03T02:08:57;0.00;99.90
21047;DHT22;10682;50.874;3.656;2023-04-03T02:11:24;0.00;99.90
21047;DHT22;10682;50.874;3.656;2023-04-03T02:13:51;0.00;99.90
21047;DHT22;10682;50.874;3.656;2023-04-03T02:16:18;-0.10;99.90
21047;DHT22;10682;50.874;3.656;2023-04-03T02:18:45;-0.10;99.90
21047;DHT22;10682;50.874;3.656;2023-04-03T02:21:12;-0.10;99.90
21047;DHT22;10682;50.874;3.656;2023-04-03T02:23:39;-0.20;99.90
21047;DHT22;10682;50.874;3.656;2023-04-03T02:26:14;-0.20;99.90
21047;DHT22;10682;50.874;3.656;2023-04-03T02:28:43;-0.20;99.90
21047;DHT22;10682;50.874;3.656;2023-04-03T02:31:10;-0.20;99.90
21047;DHT22;10682;50.874;3.656;2023-04-03T02:33:38;-0.30;99.90
21047;DHT22;10682;50.874;3.656;2023-04-03T02:36:11;-0.30;99.90
21047;DHT22;10682;50.874;3.656;2023-04-03T02:38:38;-0.30;99.90
21047;DHT22;10682;50.874;3.656;2023-04-03T02:41:14;-0.30;99.90
21047;DHT22;10682;50.874;3.656;2023-04-03T02:43:47;-0.40;99.90
21047;DHT22;10682;50.874;3.656;2023-04-03T02:46:29;-0.40;99.90
21047;DHT22;10682;50.874;3.656;2023-04-03T02:48:59;-0.40;99.90
21047;DHT22;10682;50.874;3.656;2023-04-03T02:51:32;-0.40;99.90
21047;DHT22;10682;50.874;3.656;2023-04-03T02:54:02;-0.30;99.90
21047;DHT22;10682;50.874;3.656;2023-04-03T02:56:36;-0.30;99.90
21047;DHT22;10682;50.874;3.656;2023-04-03T02:59:10;-0.30;99.90
21047;DHT22;10682;50.874;3.656;2023-04-03T03:01:40;-0.30;99.90
21047;DHT22;10682;50.874;3.656;2023-04-03T03:04:24;-0.30;99.90
21047;DHT22;10682;50.874;3.656;2023-04-03T03:07:01;-0.30;99.90
21047;DHT22;10682;50.874;3.656;2023-04-03T03:09:46;-0.30;99.90
21047;DHT22;10682;50.874;3.656;2023-04-03T03:12:34;-0.30;99.90
21047;DHT22;10682;50.874;3.656;2023-04-03T03:15:03;-0.30;99.90
21047;DHT22;10682;50.874;3.656;2023-04-03T03:17:39;-0.30;99.90
21047;DHT22;10682;50.874;3.656;2023-04-03T03:20:15;-0.20;99.90
21047;DHT22;10682;50.874;3.656;2023-04-03T03:22:45;-0.20;99.90
21047;DHT22;10682;50.874;3.656;2023-04-03T03:25:12;-0.20;99.90
21047;DHT22;10682;50.874;3.656;2023-04-03T03:27:47;-0.20;99.90
21047;DHT22;10682;50.874;3.656;2023-04-03T03:30:15;-0.30;99.90
21047;DHT22;10682;50.874;3.656;2023-04-03T03:32:52;-0.30;99.90
21047;DHT22;10682;50.874;3.656;2023-04-03T03:35:21;-0.40;99.90
21047;DHT22;10682;50.874;3.656;2023-04-03T03:37:48;-0.40;99.90
21047;DHT22;10682;50.874;3.656;2023-04-03T03:40:16;-0.50;99.90
21047;DHT22;10682;50.874;3.656;2023-04-03T03:42:47;-0.50;99.90
21047;DHT22;10682;50.874;3.656;2023-04-03T03:45:28;-0.50;99.90
21047;DHT22;10682;50.874;3.656;2023-04-03T03:47:55;-0.50;99.90
21047;DHT22;10682;50.874;3.656;2023-04-03T03:50:22;-0.60;99.90
21047;DHT22;10682;50.874;3.656;2023-04-03T03:52:49;-0.60;99.90
21047;DHT22;10682;50.874;3.656;2023-04-03T03:55:17;-0.60;99.90
21047;DHT22;10682;50.874;3.656;2023-04-03T03:57:44;-0.50;99.90
21047;DHT22;10682;50.874;3.656;2023-04-03T04:00:11;-0.50;99.90
21047;DHT22;10682;50.874;3.656;2023-04-03T04:02:38;-0.50;99.90
21047;DHT22;10682;50.874;3.656;2023-04-03T04:05:06;-0.50;99.90
21047;DHT22;10682;50.874;3.656;2023-04-03T04:07:33;-0.50;99.90
21047;DHT22;10682;50.874;3.656;2023-04-03T04:10:00;-0.50;99.90
21047;DHT22;10682;50.874;3.656;2023-04-03T04:12:27;-0.50;99.90
21047;DHT22;10682;50.874;3.656;2023-04-03T04:14:54;-0.50;99.90
21047;DHT22;10682;50.874;3.656;2023-04-03T04:17:21;-0.50;99.90
21047;DHT22;10682;50.874;3.656;2023-04-03T04:19:48;-0.50;99.90
21047;DHT22;10682;50.874;3.656;2023-04-03T04:22:16;-0.50;99.90
21047;DHT22;10682;50.874;3.656;2023-04-03T04:24:43;-0.50;99.90
21047;DHT22;10682;50.874;3.656;2023-04-03T04:27:09;-0.60;99.90
21047;DHT22;10682;50.874;3.656;2023-04-03T04:29:36;-0.60;99.90
21047;DHT22;10682;50.874;3.656;2023-04-03T04:32:04;-0.60;99.90
21047;DHT22;10682;50.874;3.656;2023-04-03T04:34:31;-0.60;99.90
21047;DHT22;10682;50.874;3.656;2023-04-03T04:36:58;-0.60;99.90
21047;DHT22;10682;50.874;3.656;2023-04-03T04:39:26;-0.60;99.90
21047;DHT22;10682;50.874;3.656;2023-04-03T04:41:53;-0.60;99.90
21047;DHT22;10682;50.874;3.656;2023-04-03T04:44:20;-0.50;99.90
21047;DHT22;10682;50.874;3.656;2023-04-03T04:46:47;-0.40;99.90
21047;DHT22;10682;50.874;3.656;2023-04-03T04:49:14;-0.20;99.90
21047;DHT22;10682;50.874;3.656;2023-04-03T04:51:41;-0.20;99.90
21047;DHT22;10682;50.874;3.656;2023-04-03T04:54:17;-0.20;99.90
21047;DHT22;10682;50.874;3.656;2023-04-03T04:56:45;-0.20;99.90
21047;DHT22;10682;50.874;3.656;2023-04-03T04:59:12;-0.30;99.90
21047;DHT22;10682;50.874;3.656;2023-04-03T05:01:39;-0.30;99.90
21047;DHT22;10682;50.874;3.656;2023-04-03T05:04:06;-0.40;99.90
21047;DHT22;10682;50.874;3.656;2023-04-03T05:06:33;-0.40;99.90
21047;DHT22;10682;50.874;3.656;2023-04-03T05:09:02;-0.50;99.90
21047;DHT22;10682;50.874;3.656;2023-04-03T05:11:29;-0.50;99.90
21047;DHT22;10682;50.874;3.656;2023-04-03T05:13:56;-0.50;99.90
21047;DHT22;10682;50.874;3.656;2023-04-03T05:16:23;-0.50;99.90
21047;DHT22;10682;50.874;3.656;2023-04-03T05:18:50;-0.50;99.90
21047;DHT22;10682;50.874;3.656;2023-04-03T05:21:25;-0.50;99.90
21047;DHT22;10682;50.874;3.656;2023-04-03T05:23:54;-0.50;99.90
21047;DHT22;10682;50.874;3.656;2023-04-03T05:26:22;-0.50;99.90
21047;DHT22;10682;50.874;3.656;2023-04-03T05:28:49;-0.50;99.90
21047;DHT22;10682;50.874;3.656;2023-04-03T05:31:16;-0.50;99.90
21047;DHT22;10682;50.874;3.656;2023-04-03T05:33:43;-0.50;99.90
21047;DHT22;10682;50.874;3.656;2023-04-03T05:36:10;-0.50;99.90
21047;DHT22;10682;50.874;3.656;2023-04-03T05:38:37;-0.40;99.90
21047;DHT22;10682;50.874;3.656;2023-04-03T05:41:04;-0.40;99.90
21047;DHT22;10682;50.874;3.656;2023-04-03T05:43:32;-0.40;99.90
21047;DHT22;10682;50.874;3.656;2023-04-03T05:46:01;-0.30;99.90
21047;DHT22;10682;50.874;3.656;2023-04-03T05:48:35;-0.20;99.90
21047;DHT22;10682;50.874;3.656;2023-04-03T05:51:17;-0.20;99.90
21047;DHT22;10682;50.874;3.656;2023-04-03T05:57:10;0.00;99.90
21047;DHT22;10682;50.874;3.656;2023-04-03T05:59:39;0.10;99.90
21047;DHT22;10682;50.874;3.656;2023-04-03T06:02:06;0.10;99.90
21047;DHT22;10682;50.874;3.656;2023-04-03T06:04:33;0.10;99.90
21047;DHT22;10682;50.874;3.656;2023-04-03T06:07:16;0.20;99.90
21047;DHT22;10682;50.874;3.656;2023-04-03T06:09:47;0.20;99.90
21047;DHT22;10682;50.874;3.656;2023-04-03T06:12:15;0.30;99.90
21047;DHT22;10682;50.874;3.656;2023-04-03T06:14:43;0.30;99.90
21047;DHT22;10682;50.874;3.656;2023-04-03T06:17:10;0.40;99.90
21047;DHT22;10682;50.874;3.656;2023-04-03T06:19:39;0.50;99.90
21047;DHT22;10682;50.874;3.656;2023-04-03T06:22:06;0.50;99.90
21047;DHT22;10682;50.874;3.656;2023-04-03T06:24:33;0.60;99.90
21047;DHT22;10682;50.874;3.656;2023-04-03T06:27:00;0.70;99.90
21047;DHT22;10682;50.874;3.656;2023-04-03T06:29:27;0.80;99.90
21047;DHT22;10682;50.874;3.656;2023-04-03T06:31:54;0.80;99.90
21047;DHT22;10682;50.874;3.656;2023-04-03T06:34:22;0.90;99.90
21047;DHT22;10682;50.874;3.656;2023-04-03T06:36:49;1.00;99.90
21047;DHT22;10682;50.874;3.656;2023-04-03T06:39:19;1.00;99.90
21047;DHT22;10682;50.874;3.656;2023-04-03T06:41:49;1.10;99.90
21047;DHT22;10682;50.874;3.656;2023-04-03T06:44:17;1.30;99.90
21047;DHT22;10682;50.874;3.656;2023-04-03T06:46:45;1.40;99.90
21047;DHT22;10682;50.874;3.656;2023-04-03T06:49:15;1.50;99.90
21047;DHT22;10682;50.874;3.656;2023-04-03T06:51:52;1.70;99.90
21047;DHT22;10682;50.874;3.656;2023-04-03T06:54:28;1.90;99.90
21047;DHT22;10682;50.874;3.656;2023-04-03T06:57:31;2.10;99.90
21047;DHT22;10682;50.874;3.656;2023-04-03T07:00:05;2.50;99.90
21047;DHT22;10682;50.874;3.656;2023-04-03T07:02:34;3.20;99.90
21047;DHT22;10682;50.874;3.656;2023-04-03T07:05:01;4.00;99.90
21047;DHT22;10682;50.874;3.656;2023-04-03T07:07:28;4.90;99.90
21047;DHT22;10682;50.874;3.656;2023-04-03T07:09:56;5.70;99.90
21047;DHT22;10682;50.874;3.656;2023-04-03T07:12:23;6.20;99.90
21047;DHT22;10682;50.874;3.656;2023-04-03T07:14:50;6.30;99.90
21047;DHT22;10682;50.874;3.656;2023-04-03T07:17:17;6.30;99.90
21047;DHT22;10682;50.874;3.656;2023-04-03T07:19:44;6.20;99.90
21047;DHT22;10682;50.874;3.656;2023-04-03T07:22:12;6.10;99.90
21047;DHT22;10682;50.874;3.656;2023-04-03T07:24:39;6.10;99.90
21047;DHT22;10682;50.874;3.656;2023-04-03T07:27:06;6.10;99.90
21047;DHT22;10682;50.874;3.656;2023-04-03T07:29:35;6.30;99.90
21047;DHT22;10682;50.874;3.656;2023-04-03T07:32:03;6.60;99.90
21047;DHT22;10682;50.874;3.656;2023-04-03T07:34:30;7.50;99.90
21047;DHT22;10682;50.874;3.656;2023-04-03T07:36:58;8.90;99.90
21047;DHT22;10682;50.874;3.656;2023-04-03T07:39:26;10.20;99.90
21047;DHT22;10682;50.874;3.656;2023-04-03T07:41:54;11.40;99.90
21047;DHT22;10682;50.874;3.656;2023-04-03T07:44:24;12.30;99.90
21047;DHT22;10682;50.874;3.656;2023-04-03T07:46:51;13.10;99.90
21047;DHT22;10682;50.874;3.656;2023-04-03T07:49:18;13.70;99.90
21047;DHT22;10682;50.874;3.656;2023-04-03T07:51:46;14.20;99.90
21047;DHT22;10682;50.874;3.656;2023-04-03T07:54:13;14.50;99.90
21047;DHT22;10682;50.874;3.656;2023-04-03T07:56:40;14.80;99.90
21047;DHT22;10682;50.874;3.656;2023-04-03T07:59:15;15.00;99.90
21047;DHT22;10682;50.874;3.656;2023-04-03T08:01:47;15.10;99.90
21047;DHT22;10682;50.874;3.656;2023-04-03T08:04:15;14.70;99.90
21047;DHT22;10682;50.874;3.656;2023-04-03T08:06:44;14.60;99.90
21047;DHT22;10682;50.874;3.656;2023-04-03T08:09:14;14.50;99.90
21047;DHT22;10682;50.874;3.656;2023-04-03T08:11:42;14.10;99.90
21047;DHT22;10682;50.874;3.656;2023-04-03T08:14:09;13.70;99.90
21047;DHT22;10682;50.874;3.656;2023-04-03T08:16:46;13.50;99.90
21047;DHT22;10682;50.874;3.656;2023-04-03T08:19:15;13.30;99.90
21047;DHT22;10682;50.874;3.656;2023-04-03T08:21:53;13.40;99.90
21047;DHT22;10682;50.874;3.656;2023-04-03T08:24:21;13.00;99.90
21047;DHT22;10682;50.874;3.656;2023-04-03T08:26:58;12.80;99.90
21047;DHT22;10682;50.874;3.656;2023-04-03T08:29:25;12.60;99.90
21047;DHT22;10682;50.874;3.656;2023-04-03T08:31:55;12.40;99.90
21047;DHT22;10682;50.874;3.656;2023-04-03T08:34:22;12.00;99.90
21047;DHT22;10682;50.874;3.656;2023-04-03T08:36:49;11.70;99.90
21047;DHT22;10682;50.874;3.656;2023-04-03T08:39:19;11.30;99.90
21047;DHT22;10682;50.874;3.656;2023-04-03T08:41:47;11.00;99.90
21047;DHT22;10682;50.874;3.656;2023-04-03T08:47:24;10.70;99.90
21047;DHT22;10682;50.874;3.656;2023-04-03T08:50:02;10.40;99.90
21047;DHT22;10682;50.874;3.656;2023-04-03T08:52:39;10.20;99.90
21047;DHT22;10682;50.874;3.656;2023-04-03T08:55:25;10.00;99.90
21047;DHT22;10682;50.874;3.656;2023-04-03T08:58:09;9.90;99.90
21047;DHT22;10682;50.874;3.656;2023-04-03T09:01:17;9.80;99.90
21047;DHT22;10682;50.874;3.656;2023-04-03T09:03:53;9.70;99.90
21047;DHT22;10682;50.874;3.656;2023-04-03T09:06:27;9.60;99.90
21047;DHT22;10682;50.874;3.656;2023-04-03T09:12:34;9.90;99.90
21047;DHT22;10682;50.874;3.656;2023-04-03T09:15:25;10.20;99.90
21047;DHT22;10682;50.874;3.656;2023-04-03T09:21:06;10.50;99.90
21047;DHT22;10682;50.874;3.656;2023-04-03T09:24:05;10.50;99.90
21047;DHT22;10682;50.874;3.656;2023-04-03T09:27:01;10.50;99.90
21047;DHT22;10682;50.874;3.656;2023-04-03T09:29:47;10.30;99.90
21047;DHT22;10682;50.874;3.656;2023-04-03T09:32:29;10.20;99.90
21047;DHT22;10682;50.874;3.656;2023-04-03T09:35:33;10.20;99.90
21047;DHT22;10682;50.874;3.656;2023-04-03T09:38:29;10.30;99.90
21047;DHT22;10682;50.874;3.656;2023-04-03T09:41:13;10.30;99.90
21047;DHT22;10682;50.874;3.656;2023-04-03T09:43:56;10.30;99.90
21047;DHT22;10682;50.874;3.656;2023-04-03T09:46:31;10.40;99.90
21047;DHT22;10682;50.874;3.656;2023-04-03T09:49:14;10.60;99.90
21047;DHT22;10682;50.874;3.656;2023-04-03T09:55:51;10.60;99.90
21047;DHT22;10682;50.874;3.656;2023-04-03T09:59:06;10.50;99.90
21047;DHT22;10682;50.874;3.656;2023-04-03T10:01:39;10.70;99.90
21047;DHT22;10682;50.874;3.656;2023-04-03T10:04:18;10.90;99.90
21047;DHT22;10682;50.874;3.656;2023-04-03T10:06:51;11.10;99.90
21047;DHT22;10682;50.874;3.656;2023-04-03T10:09:25;11.00;99.90
21047;DHT22;10682;50.874;3.656;2023-04-03T10:15:55;10.70;99.90
21047;DHT22;10682;50.874;3.656;2023-04-03T10:58:21;12.10;99.90
21047;DHT22;10682;50.874;3.656;2023-04-03T11:02:00;12.30;99.90
21047;DHT22;10682;50.874;3.656;2023-04-03T11:05:37;12.30;99.90
21047;DHT22;10682;50.874;3.656;2023-04-03T11:08:57;12.30;99.90
21047;DHT22;10682;50.874;3.656;2023-04-03T11:15:39;12.20;99.90
21047;DHT22;10682;50.874;3.656;2023-04-03T11:22:51;12.30;99.90
21047;DHT22;10682;50.874;3.656;2023-04-03T11:25:41;12.50;99.90
21047;DHT22;10682;50.874;3.656;2023-04-03T11:28:39;12.60;99.90
21047;DHT22;10682;50.874;3.656;2023-04-03T11:34:39;12.40;99.90
21047;DHT22;10682;50.874;3.656;2023-04-03T11:37:30;12.40;99.90
21047;DHT22;10682;50.874;3.656;2023-04-03T11:43:29;12.70;99.90
21047;DHT22;10682;50.874;3.656;2023-04-03T11:46:09;12.90;99.90
21047;DHT22;10682;50.874;3.656;2023-04-03T11:48:46;12.90;99.90
21047;DHT22;10682;50.874;3.656;2023-04-03T11:57:46;13.00;99.90
21047;DHT22;10682;50.874;3.656;2023-04-03T12:08:45;13.10;99.90
21047;DHT22;10682;50.874;3.656;2023-04-03T12:11:29;13.10;99.90
21047;DHT22;10682;50.874;3.656;2023-04-03T12:19:01;13.30;99.90
21047;DHT22;10682;50.874;3.656;2023-04-03T12:24:35;13.10;99.90
21047;DHT22;10682;50.874;3.656;2023-04-03T12:27:28;12.90;99.90
21047;DHT22;10682;50.874;3.656;2023-04-03T12:35:18;13.00;99.90
21047;DHT22;10682;50.874;3.656;2023-04-03T12:38:25;12.90;99.90
21047;DHT22;10682;50.874;3.656;2023-04-03T12:44:01;12.80;99.90
21047;DHT22;10682;50.874;3.656;2023-04-03T12:46:42;13.10;99.90
21047;DHT22;10682;50.874;3.656;2023-04-03T12:51:57;13.20;99.90
21047;DHT22;10682;50.874;3.656;2023-04-03T12:54:40;13.30;99.90
21047;DHT22;10682;50.874;3.656;2023-04-03T12:57:19;13.30;99.90
21047;DHT22;10682;50.874;3.656;2023-04-03T12:59:48;13.20;99.90
21047;DHT22;10682;50.874;3.656;2023-04-03T13:05:06;13.00;99.90
21047;DHT22;10682;50.874;3.656;2023-04-03T13:07:37;12.90;99.90
21047;DHT22;10682;50.874;3.656;2023-04-03T13:10:18;12.80;99.90
21047;DHT22;10682;50.874;3.656;2023-04-03T13:12:59;12.60;99.90
21047;DHT22;10682;50.874;3.656;2023-04-03T13:15:44;12.70;99.90
21047;DHT22;10682;50.874;3.656;2023-04-03T13:18:32;12.80;99.90
21047;DHT22;10682;50.874;3.656;2023-04-03T13:23:45;12.90;99.90
21047;DHT22;10682;50.874;3.656;2023-04-03T13:26:20;12.90;99.90
21047;DHT22;10682;50.874;3.656;2023-04-03T13:28:49;12.80;99.90
21047;DHT22;10682;50.874;3.656;2023-04-03T13:31:23;12.90;99.90
21047;DHT22;10682;50.874;3.656;2023-04-03T13:34:27;13.10;99.90
21047;DHT22;10682;50.874;3.656;2023-04-03T13:36:58;13.00;99.90
21047;DHT22;10682;50.874;3.656;2023-04-03T13:39:30;13.10;99.90
21047;DHT22;10682;50.874;3.656;2023-04-03T13:44:47;13.40;99.90
21047;DHT22;10682;50.874;3.656;2023-04-03T13:47:22;13.40;99.90
21047;DHT22;10682;50.874;3.656;2023-04-03T13:50:03;13.40;99.90
21047;DHT22;10682;50.874;3.656;2023-04-03T13:52:49;13.50;99.90
21047;DHT22;10682;50.874;3.656;2023-04-03T13:55:31;13.50;99.90
21047;DHT22;10682;50.874;3.656;2023-04-03T13:58:21;13.40;99.90
21047;DHT22;10682;50.874;3.656;2023-04-03T14:03:54;13.40;99.90
21047;DHT22;10682;50.874;3.656;2023-04-03T14:06:23;13.40;99.90
21047;DHT22;10682;50.874;3.656;2023-04-03T14:08:51;13.40;99.90
21047;DHT22;10682;50.874;3.656;2023-04-03T14:11:22;13.30;99.90
21047;DHT22;10682;50.874;3.656;2023-04-03T14:13:51;13.00;99.90
21047;DHT22;10682;50.874;3.656;2023-04-03T14:16:22;12.90;99.90
21047;DHT22;10682;50.874;3.656;2023-04-03T14:18:50;12.90;99.90
21047;DHT22;10682;50.874;3.656;2023-04-03T14:21:19;12.70;99.90
21047;DHT22;10682;50.874;3.656;2023-04-03T14:23:47;12.40;99.90
21047;DHT22;10682;50.874;3.656;2023-04-03T14:26:18;12.30;99.90
21047;DHT22;10682;50.874;3.656;2023-04-03T14:28:49;12.30;99.90
21047;DHT22;10682;50.874;3.656;2023-04-03T14:31:20;12.20;99.90
21047;DHT22;10682;50.874;3.656;2023-04-03T14:33:48;12.20;99.90
21047;DHT22;10682;50.874;3.656;2023-04-03T14:36:19;12.20;99.90
21047;DHT22;10682;50.874;3.656;2023-04-03T14:38:49;12.10;99.90
21047;DHT22;10682;50.874;3.656;2023-04-03T14:41:18;12.00;99.90
21047;DHT22;10682;50.874;3.656;2023-04-03T14:43:47;11.90;99.90
21047;DHT22;10682;50.874;3.656;2023-04-03T14:46:16;11.80;99.90
21047;DHT22;10682;50.874;3.656;2023-04-03T14:48:44;11.80;99.90
21047;DHT22;10682;50.874;3.656;2023-04-03T14:51:12;11.80;99.90
21047;DHT22;10682;50.874;3.656;2023-04-03T14:53:42;11.80;99.90
21047;DHT22;10682;50.874;3.656;2023-04-03T14:56:19;11.80;99.90
21047;DHT22;10682;50.874;3.656;2023-04-03T14:58:50;11.60;99.90
21047;DHT22;10682;50.874;3.656;2023-04-03T15:01:20;11.60;99.90
21047;DHT22;10682;50.874;3.656;2023-04-03T15:03:47;11.60;99.90
21047;DHT22;10682;50.874;3.656;2023-04-03T15:06:15;11.60;99.90
21047;DHT22;10682;50.874;3.656;2023-04-03T15:08:43;11.70;99.90
21047;DHT22;10682;50.874;3.656;2023-04-03T15:11:11;11.70;99.90
21047;DHT22;10682;50.874;3.656;2023-04-03T15:13:39;11.70;99.90
21047;DHT22;10682;50.874;3.656;2023-04-03T15:16:17;11.60;99.90
21047;DHT22;10682;50.874;3.656;2023-04-03T15:18:46;11.60;99.90
21047;DHT22;10682;50.874;3.656;2023-04-03T15:21:14;11.40;99.90
21047;DHT22;10682;50.874;3.656;2023-04-03T15:23:41;11.40;99.90
21047;DHT22;10682;50.874;3.656;2023-04-03T15:26:09;11.30;99.90
21047;DHT22;10682;50.874;3.656;2023-04-03T15:28:40;11.30;99.90
21047;DHT22;10682;50.874;3.656;2023-04-03T15:31:08;11.30;99.90
21047;DHT22;10682;50.874;3.656;2023-04-03T15:33:36;11.30;99.90
21047;DHT22;10682;50.874;3.656;2023-04-03T15:36:04;11.30;99.90
21047;DHT22;10682;50.874;3.656;2023-04-03T15:38:33;11.20;99.90
21047;DHT22;10682;50.874;3.656;2023-04-03T15:41:02;11.20;99.90
21047;DHT22;10682;50.874;3.656;2023-04-03T15:43:29;11.20;99.90
21047;DHT22;10682;50.874;3.656;2023-04-03T15:45:58;11.30;99.90
21047;DHT22;10682;50.874;3.656;2023-04-03T15:48:27;11.20;99.90
21047;DHT22;10682;50.874;3.656;2023-04-03T15:50:55;11.20;99.90
21047;DHT22;10682;50.874;3.656;2023-04-03T15:53:24;11.30;99.90
21047;DHT22;10682;50.874;3.656;2023-04-03T15:55:51;11.40;99.90
21047;DHT22;10682;50.874;3.656;2023-04-03T15:58:18;11.40;99.90
21047;DHT22;10682;50.874;3.656;2023-04-03T16:00:45;11.40;99.90
21047;DHT22;10682;50.874;3.656;2023-04-03T16:03:16;11.30;99.90
21047;DHT22;10682;50.874;3.656;2023-04-03T16:05:46;11.20;99.90
21047;DHT22;10682;50.874;3.656;2023-04-03T16:08:13;11.20;99.90
21047;DHT22;10682;50.874;3.656;2023-04-03T16:10:40;11.20;99.90
21047;DHT22;10682;50.874;3.656;2023-04-03T16:13:10;11.10;99.90
21047;DHT22;10682;50.874;3.656;2023-04-03T16:15:40;11.10;99.90
21047;DHT22;10682;50.874;3.656;2023-04-03T16:18:08;11.10;99.90
21047;DHT22;10682;50.874;3.656;2023-04-03T16:20:43;11.00;99.90
21047;DHT22;10682;50.874;3.656;2023-04-03T16:23:11;11.00;99.90
21047;DHT22;10682;50.874;3.656;2023-04-03T16:25:38;11.00;99.90
21047;DHT22;10682;50.874;3.656;2023-04-03T16:28:05;10.90;99.90
21047;DHT22;10682;50.874;3.656;2023-04-03T16:30:33;11.00;99.90
21047;DHT22;10682;50.874;3.656;2023-04-03T16:33:00;11.00;99.90
21047;DHT22;10682;50.874;3.656;2023-04-03T16:35:27;10.90;99.90
21047;DHT22;10682;50.874;3.656;2023-04-03T16:37:54;10.90;99.90
21047;DHT22;10682;50.874;3.656;2023-04-03T16:40:21;10.90;99.90
21047;DHT22;10682;50.874;3.656;2023-04-03T16:42:48;10.90;99.90
21047;DHT22;10682;50.874;3.656;2023-04-03T16:45:15;10.80;99.90
21047;DHT22;10682;50.874;3.656;2023-04-03T16:47:42;10.80;99.90
21047;DHT22;10682;50.874;3.656;2023-04-03T16:50:09;10.70;99.90
21047;DHT22;10682;50.874;3.656;2023-04-03T16:52:37;10.70;99.90
21047;DHT22;10682;50.874;3.656;2023-04-03T16:55:04;10.70;99.90
21047;DHT22;10682;50.874;3.656;2023-04-03T16:57:32;10.60;99.90
21047;DHT22;10682;50.874;3.656;2023-04-03T16:59:59;10.60;99.90
21047;DHT22;10682;50.874;3.656;2023-04-03T17:02:25;10.60;99.90
21047;DHT22;10682;50.874;3.656;2023-04-03T17:04:53;10.40;99.90
21047;DHT22;10682;50.874;3.656;2023-04-03T17:07:22;10.40;99.90
21047;DHT22;10682;50.874;3.656;2023-04-03T17:09:50;10.30;99.90
21047;DHT22;10682;50.874;3.656;2023-04-03T17:12:18;10.20;99.90
21047;DHT22;10682;50.874;3.656;2023-04-03T17:14:45;10.10;99.90
21047;DHT22;10682;50.874;3.656;2023-04-03T17:17:19;10.00;99.90
21047;DHT22;10682;50.874;3.656;2023-04-03T17:19:48;10.00;99.90
21047;DHT22;10682;50.874;3.656;2023-04-03T17:22:15;9.90;99.90
21047;DHT22;10682;50.874;3.656;2023-04-03T17:24:44;9.90;99.90
21047;DHT22;10682;50.874;3.656;2023-04-03T17:27:11;9.80;99.90
21047;DHT22;10682;50.874;3.656;2023-04-03T17:29:39;9.80;99.90
21047;DHT22;10682;50.874;3.656;2023-04-03T17:32:05;9.80;99.90
21047;DHT22;10682;50.874;3.656;2023-04-03T17:34:32;9.70;99.90
21047;DHT22;10682;50.874;3.656;2023-04-03T17:36:59;9.60;99.90
21047;DHT22;10682;50.874;3.656;2023-04-03T17:39:26;9.50;99.90
21047;DHT22;10682;50.874;3.656;2023-04-03T17:41:53;9.50;99.90
21047;DHT22;10682;50.874;3.656;2023-04-03T17:44:21;9.50;99.90
21047;DHT22;10682;50.874;3.656;2023-04-03T17:46:48;9.50;99.90
21047;DHT22;10682;50.874;3.656;2023-04-03T17:49:15;9.50;99.90
21047;DHT22;10682;50.874;3.656;2023-04-03T17:51:44;9.50;99.90
21047;DHT22;10682;50.874;3.656;2023-04-03T17:54:11;9.50;99.90
21047;DHT22;10682;50.874;3.656;2023-04-03T17:56:38;9.40;99.90
21047;DHT22;10682;50.874;3.656;2023-04-03T17:59:05;9.30;99.90
21047;DHT22;10682;50.874;3.656;2023-04-03T18:01:33;9.30;99.90
21047;DHT22;10682;50.874;3.656;2023-04-03T18:04:04;9.20;99.90
21047;DHT22;10682;50.874;3.656;2023-04-03T18:06:37;9.20;99.90
21047;DHT22;10682;50.874;3.656;2023-04-03T18:09:16;9.10;99.90
21047;DHT22;10682;50.874;3.656;2023-04-03T18:11:45;9.00;99.90